Time;durP1;ratioP1;P1;durP2;ratioP2;P2;SDS_P1;SDS_P2;PMS_P1;PMS_P2;Temp;Humidity;BMP_temperature;BMP_pressure;BME280_temperature;BME280_humidity;BME280_pressure;Samples;Min_cycle;Max_cycle;Signal;HPM_P1;HPM_P2
2024/03/11 00:03:22;;;;;;;16.40;6.30;;;;;;;9.45;87.56;98967.01;108788;1269;22599;-82
2024/03/11 00:06:13;;;;;;;15.00;5.40;;;;;;;9.47;87.26;98962.39;108546;1269;25143;-82
2024/03/11 00:09:15;;;;;;;18.00;5.30;;;;;;;9.51;87.14;98959.61;108773;1268;23176;-83
2024/03/11 00:12:07;;;;;;;15.20;4.60;;;;;;;9.52;87.38;98960.27;108499;1269;22545;-85
2024/03/11 00:14:58;;;;;;;17.40;4.90;;;;;;;9.54;87.36;98961.09;108600;1269;22777;-82
2024/03/11 00:17:49;;;;;;;16.30;4.60;;;;;;;9.57;87.29;98959.02;108711;1269;22533;-83
2024/03/11 00:20:40;;;;;;;16.10;5.10;;;;;;;9.58;87.22;98962.42;108753;1269;22627;-83
2024/03/11 00:23:33;;;;;;;14.80;5.10;;;;;;;9.60;87.19;98959.45;108885;1268;22597;-82
2024/03/11 00:26:24;;;;;;;16.70;5.10;;;;;;;9.61;87.23;98963.39;108902;1268;22622;-82
2024/03/11 00:29:16;;;;;;;17.40;5.50;;;;;;;9.63;87.27;98960.71;108807;1268;22523;-81
2024/03/11 00:32:09;;;;;;;13.30;4.70;;;;;;;9.64;87.34;98956.97;108639;1268;25224;-83
2024/03/11 00:35:01;;;;;;;15.50;4.80;;;;;;;9.66;87.15;98953.78;108863;1268;22680;-81
2024/03/11 00:37:52;;;;;;;16.20;4.70;;;;;;;9.67;87.17;98955.25;108745;1266;22629;-82
2024/03/11 00:40:43;;;;;;;15.20;6.00;;;;;;;9.68;87.22;98950.17;108981;1268;22757;-82
2024/03/11 00:43:33;;;;;;;13.80;5.30;;;;;;;9.69;87.18;98949.89;108881;1268;22553;-83
2024/03/11 00:46:25;;;;;;;15.70;5.00;;;;;;;9.71;87.12;98947.45;108814;1269;25258;-82
2024/03/11 00:49:16;;;;;;;12.20;4.40;;;;;;;9.71;87.05;98953.54;108832;1268;25374;-81
2024/03/11 00:52:09;;;;;;;13.30;4.00;;;;;;;9.72;87.03;98948.48;108872;1268;26538;-83
2024/03/11 00:55:02;;;;;;;11.90;3.90;;;;;;;9.72;87.07;98945.57;109019;1268;23258;-81
2024/03/11 00:57:53;;;;;;;14.00;4.70;;;;;;;9.72;87.18;98943.65;109229;1268;25386;-82
2024/03/11 01:00:44;;;;;;;11.30;4.00;;;;;;;9.73;87.16;98944.98;109098;1268;25445;-82
2024/03/11 01:03:35;;;;;;;13.40;4.00;;;;;;;9.73;87.16;98941.32;108609;1269;22561;-81
2024/03/11 01:06:26;;;;;;;13.50;4.20;;;;;;;9.73;87.11;98940.92;108868;1262;22525;-83
2024/03/11 01:09:20;;;;;;;16.20;4.10;;;;;;;9.72;87.13;98938.02;108816;1267;22542;-82
2024/03/11 01:12:11;;;;;;;14.00;4.50;;;;;;;9.72;87.17;98941.17;108998;1268;22590;-81
2024/03/11 01:15:01;;;;;;;15.90;4.60;;;;;;;9.71;87.09;98938.67;108881;1269;22524;-83
2024/03/11 01:17:55;;;;;;;14.70;4.50;;;;;;;9.70;87.16;98941.56;108644;1269;22841;-82
2024/03/11 01:20:46;;;;;;;12.90;4.50;;;;;;;9.70;87.18;98941.27;108609;1269;25386;-82
2024/03/11 01:23:37;;;;;;;16.00;5.00;;;;;;;9.70;87.03;98935.90;108886;1268;22509;-82
2024/03/11 01:26:28;;;;;;;13.40;4.60;;;;;;;9.69;87.12;98934.63;108979;1268;22561;-82
2024/03/11 01:29:21;;;;;;;13.60;4.60;;;;;;;9.67;87.01;98929.61;108849;1268;22547;-82
2024/03/11 01:32:13;;;;;;;13.90;4.60;;;;;;;9.66;87.12;98926.21;108942;1261;22549;-82
2024/03/11 01:35:04;;;;;;;13.80;4.90;;;;;;;9.63;86.96;98927.17;109448;1260;25264;-82
2024/03/11 01:37:55;;;;;;;15.60;5.00;;;;;;;9.60;87.09;98919.58;108959;1267;24273;-82
2024/03/11 01:40:47;;;;;;;17.30;5.90;;;;;;;9.56;87.05;98918.23;108909;1268;25383;-82
2024/03/11 01:43:38;;;;;;;13.50;4.50;;;;;;;9.53;87.07;98915.60;108977;1264;22600;-82
2024/03/11 01:46:32;;;;;;;12.40;5.20;;;;;;;9.50;87.07;98913.48;108807;1268;24186;-83
2024/03/11 01:49:25;;;;;;;16.10;5.40;;;;;;;9.46;86.98;98917.00;108784;1268;22591;-83
2024/03/11 01:52:20;;;;;;;14.40;6.20;;;;;;;9.42;87.04;98918.77;108930;1263;24189;-84
2024/03/11 01:55:13;;;;;;;16.30;5.50;;;;;;;9.36;87.02;98917.99;108861;1269;22632;-82
2024/03/11 01:58:09;;;;;;;17.10;6.20;;;;;;;9.31;87.17;98913.87;109810;1267;22512;-82
2024/03/11 02:01:00;;;;;;;18.80;5.90;;;;;;;9.29;87.04;98908.52;109111;1264;22598;-82
2024/03/11 02:03:51;;;;;;;14.60;5.30;;;;;;;9.26;87.11;98911.48;108999;1268;24173;-83
2024/03/11 02:06:43;;;;;;;17.10;5.70;;;;;;;9.21;87.16;98903.48;108981;1268;25451;-83
2024/03/11 02:09:35;;;;;;;16.10;6.00;;;;;;;9.17;87.29;98904.12;108927;1268;23703;-83
2024/03/11 02:12:26;;;;;;;15.40;5.50;;;;;;;9.15;87.39;98902.39;108768;1268;24613;-82
2024/03/11 02:15:18;;;;;;;15.40;6.00;;;;;;;9.11;87.41;98900.56;108970;1268;22571;-82
2024/03/11 02:18:09;;;;;;;14.90;4.80;;;;;;;9.09;87.52;98896.75;109055;1263;22525;-82
2024/03/11 02:21:00;;;;;;;16.50;6.10;;;;;;;9.07;87.65;98890.38;108672;1268;22519;-82
2024/03/11 02:23:51;;;;;;;17.00;6.00;;;;;;;9.05;87.64;98890.77;108947;1267;23253;-82
2024/03/11 02:26:45;;;;;;;18.60;6.70;;;;;;;9.03;87.67;98892.99;108920;1269;25412;-82
2024/03/11 02:29:38;;;;;;;16.40;5.90;;;;;;;9.00;87.79;98888.92;108644;1269;23874;-83
2024/03/11 02:32:29;;;;;;;18.40;7.00;;;;;;;8.98;87.96;98889.07;108809;1261;25349;-82
2024/03/11 02:35:20;;;;;;;16.00;6.00;;;;;;;8.97;88.10;98890.09;108905;1267;22538;-83
2024/03/11 02:38:13;;;;;;;15.90;5.90;;;;;;;8.98;88.00;98893.37;108970;1255;26662;-83
2024/03/11 02:41:05;;;;;;;17.70;6.70;;;;;;;8.98;88.13;98895.48;108778;1267;22648;-82
2024/03/11 02:43:56;;;;;;;17.20;6.00;;;;;;;8.98;88.19;98897.77;108676;1269;24226;-82
2024/03/11 02:46:47;;;;;;;15.60;6.30;;;;;;;9.00;88.16;98903.77;108898;1269;26718;-81
2024/03/11 02:49:38;;;;;;;19.10;7.30;;;;;;;9.00;88.13;98902.54;108818;1267;23875;-81
2024/03/11 02:52:29;;;;;;;16.50;6.20;;;;;;;9.00;88.22;98904.31;108809;1268;22652;-81
2024/03/11 02:55:22;;;;;;;19.70;5.30;;;;;;;9.01;88.48;98906.14;108667;1265;25452;-81
2024/03/11 02:58:13;;;;;;;15.60;5.50;;;;;;;9.02;88.56;98908.52;108905;1262;22525;-82
2024/03/11 03:01:04;;;;;;;17.20;5.60;;;;;;;9.01;88.53;98912.56;108876;1269;25255;-81
2024/03/11 03:03:56;;;;;;;18.50;6.10;;;;;;;9.03;88.52;98914.45;108930;1268;23692;-82
2024/03/11 03:06:46;;;;;;;14.80;5.90;;;;;;;9.04;88.62;98912.79;108930;1267;22615;-81
2024/03/11 03:09:38;;;;;;;15.30;5.40;;;;;;;9.06;88.64;98916.48;109012;1268;22550;-82
2024/03/11 03:12:30;;;;;;;15.00;5.70;;;;;;;9.07;88.65;98916.99;109042;1261;22540;-81
2024/03/11 03:15:21;;;;;;;14.20;5.40;;;;;;;9.09;88.70;98921.15;108970;1268;24065;-81
2024/03/11 03:18:12;;;;;;;15.70;5.00;;;;;;;9.10;88.74;98923.48;109206;1260;22557;-81
2024/03/11 03:21:03;;;;;;;13.70;5.30;;;;;;;9.11;88.92;98921.16;108979;1267;22514;-82
2024/03/11 03:23:54;;;;;;;16.70;5.10;;;;;;;9.12;88.69;98916.56;109194;1259;24186;-81
2024/03/11 03:26:45;;;;;;;16.30;5.40;;;;;;;9.13;88.79;98922.06;108757;1269;24103;-81
2024/03/11 03:29:39;;;;;;;14.30;5.80;;;;;;;9.15;88.83;98922.19;108643;1269;23279;-83
2024/03/11 03:32:31;;;;;;;13.50;4.80;;;;;;;9.15;89.03;98928.06;108722;1268;22537;-81
2024/03/11 03:35:21;;;;;;;17.30;5.00;;;;;;;9.16;88.83;98923.10;108917;1259;22739;-81
2024/03/11 03:38:12;;;;;;;14.30;6.10;;;;;;;9.18;88.83;98926.45;108891;1256;23171;-83
2024/03/11 03:41:05;;;;;;;14.30;5.20;;;;;;;9.19;88.96;98929.79;108824;1268;25397;-82
2024/03/11 03:43:56;;;;;;;15.90;5.50;;;;;;;9.19;88.80;98928.02;109261;1268;24342;-82
2024/03/11 03:46:47;;;;;;;15.40;5.70;;;;;;;9.21;88.86;98922.92;109451;1268;22625;-81
2024/03/11 03:49:39;;;;;;;15.30;5.40;;;;;;;9.21;88.92;98925.25;109242;1268;23229;-82
2024/03/11 03:52:30;;;;;;;15.80;5.70;;;;;;;9.21;89.10;98927.79;109524;1269;22544;-84
2024/03/11 03:55:23;;;;;;;16.70;5.90;;;;;;;9.22;88.95;98928.33;109453;1268;26052;-82
2024/03/11 03:58:15;;;;;;;17.40;5.80;;;;;;;9.23;88.97;98925.97;109549;1266;22668;-83
2024/03/11 04:01:06;;;;;;;17.30;5.50;;;;;;;9.24;88.94;98921.35;109659;1268;23362;-82
2024/03/11 04:03:57;;;;;;;16.00;5.60;;;;;;;9.26;89.08;98921.71;109814;1268;22516;-82
2024/03/11 04:06:48;;;;;;;15.00;5.40;;;;;;;9.26;89.03;98923.44;109834;1266;22762;-82
2024/03/11 04:09:39;;;;;;;16.70;5.30;;;;;;;9.26;88.85;98919.29;109732;1261;22552;-81
2024/03/11 04:12:30;;;;;;;13.30;5.00;;;;;;;9.26;88.94;98918.73;109906;1267;23403;-82
2024/03/11 04:15:22;;;;;;;15.00;5.20;;;;;;;9.26;88.90;98920.35;109942;1260;22578;-82
2024/03/11 04:18:13;;;;;;;16.00;5.70;;;;;;;9.24;89.06;98926.12;109757;1263;22618;-82
2024/03/11 04:21:06;;;;;;;17.30;6.20;;;;;;;9.23;88.93;98925.15;109666;1268;22557;-85
2024/03/11 04:23:57;;;;;;;16.20;5.90;;;;;;;9.21;88.94;98926.62;109463;1269;24540;-82
2024/03/11 04:26:50;;;;;;;15.40;5.80;;;;;;;9.21;89.08;98928.89;109576;1269;23231;-82
2024/03/11 04:29:42;;;;;;;14.60;5.10;;;;;;;9.19;89.19;98937.33;109289;1269;22616;-82
2024/03/11 04:32:33;;;;;;;15.20;5.30;;;;;;;9.17;89.01;98937.83;109390;1268;22542;-83
2024/03/11 04:35:27;;;;;;;17.00;5.60;;;;;;;9.16;89.17;98943.86;108769;1268;24336;-80
2024/03/11 04:38:19;;;;;;;16.80;6.10;;;;;;;9.17;89.24;98947.86;108646;1257;22575;-80
2024/03/11 04:41:10;;;;;;;14.80;5.30;;;;;;;9.17;89.28;98955.85;108811;1263;22524;-82
2024/03/11 04:44:01;;;;;;;15.50;5.40;;;;;;;9.17;89.25;98954.44;108782;1262;22574;-83
2024/03/11 04:46:54;;;;;;;15.50;5.40;;;;;;;9.18;89.49;98959.31;108349;1268;22565;-81
2024/03/11 04:49:45;;;;;;;14.60;5.20;;;;;;;9.18;89.49;98956.92;108494;1267;22673;-81
2024/03/11 04:52:36;;;;;;;14.80;5.40;;;;;;;9.18;89.46;98958.65;108774;1267;23359;-81
2024/03/11 04:55:28;;;;;;;23.90;7.10;;;;;;;9.19;89.62;98965.38;108517;1264;24046;-81
2024/03/11 04:58:19;;;;;;;15.60;6.20;;;;;;;9.19;89.65;98963.55;108811;1262;22540;-81
2024/03/11 05:01:10;;;;;;;16.70;5.30;;;;;;;9.18;89.72;98962.95;108613;1262;22568;-81
2024/03/11 05:04:00;;;;;;;15.40;5.30;;;;;;;9.18;89.80;98966.69;108632;1266;25474;-81
2024/03/11 05:06:52;;;;;;;18.00;6.10;;;;;;;9.18;89.91;98969.93;108781;1265;25377;-81
2024/03/11 05:09:42;;;;;;;19.40;7.10;;;;;;;9.18;89.91;98977.16;108702;1264;25527;-81
2024/03/11 05:12:34;;;;;;;21.30;7.50;;;;;;;9.20;89.89;98982.34;108632;1268;22622;-81
2024/03/11 05:15:26;;;;;;;18.00;7.70;;;;;;;9.20;90.09;98980.33;108714;1268;22624;-83
2024/03/11 05:18:18;;;;;;;20.60;8.20;;;;;;;9.21;90.23;98988.58;108777;1267;22999;-84
2024/03/11 05:21:12;;;;;;;17.80;7.00;;;;;;;9.20;90.10;98991.37;109155;1260;24276;-85
2024/03/11 05:24:03;;;;;;;17.20;6.70;;;;;;;9.21;90.43;98994.61;109622;1269;22675;-85
2024/03/11 05:26:54;;;;;;;15.30;5.30;;;;;;;9.21;90.43;98987.72;109290;1268;22559;-84
2024/03/11 05:29:46;;;;;;;17.00;6.20;;;;;;;9.23;90.58;98987.48;109118;1269;22697;-84
2024/03/11 05:32:37;;;;;;;17.40;6.30;;;;;;;9.25;90.52;98992.90;109496;1268;23204;-85
2024/03/11 05:35:29;;;;;;;20.30;6.50;;;;;;;9.26;90.78;98987.64;109643;1268;22551;-84
2024/03/11 05:38:20;;;;;;;17.10;5.80;;;;;;;9.28;90.76;98982.80;109974;1265;22567;-85
2024/03/11 05:41:11;;;;;;;17.70;7.20;;;;;;;9.29;90.77;98981.92;110138;1265;22582;-85
2024/03/11 05:44:04;;;;;;;17.30;6.30;;;;;;;9.30;90.80;98991.35;110033;1263;22664;-85
2024/03/11 05:46:55;;;;;;;16.80;6.90;;;;;;;9.31;90.84;99002.50;109989;1268;22570;-85
2024/03/11 05:49:47;;;;;;;19.00;6.80;;;;;;;9.33;90.96;99009.14;110157;1262;23304;-85
2024/03/11 05:52:44;;;;;;;17.60;5.70;;;;;;;9.35;90.89;99008.03;109981;1267;22588;-85
2024/03/11 05:55:36;;;;;;;18.60;6.70;;;;;;;9.37;91.08;99008.23;109994;1268;23299;-85
2024/03/11 05:58:28;;;;;;;16.50;6.30;;;;;;;9.37;91.19;99010.67;109918;1262;23305;-86
2024/03/11 06:01:20;;;;;;;16.10;5.70;;;;;;;9.39;91.11;99014.48;109873;1265;23235;-85
2024/03/11 06:04:11;;;;;;;15.20;6.60;;;;;;;9.40;91.15;99012.05;110120;1265;22551;-85
2024/03/11 06:07:02;;;;;;;18.00;6.60;;;;;;;9.42;91.20;99010.89;110127;1262;22546;-85
2024/03/11 06:09:53;;;;;;;16.90;7.00;;;;;;;9.44;91.30;99014.75;109897;1268;22537;-85
2024/03/11 06:12:44;;;;;;;19.60;7.50;;;;;;;9.45;91.29;99017.44;110096;1268;22568;-85
2024/03/11 06:15:37;;;;;;;15.60;6.80;;;;;;;9.48;91.56;99018.62;109907;1267;22543;-85
2024/03/11 06:18:29;;;;;;;16.50;7.10;;;;;;;9.49;91.45;99024.65;109803;1262;22521;-84
2024/03/11 06:21:20;;;;;;;18.30;6.40;;;;;;;9.51;91.55;99030.33;109839;1262;25230;-85
2024/03/11 06:24:12;;;;;;;17.40;6.10;;;;;;;9.53;91.58;99034.64;110054;1261;22534;-85
2024/03/11 06:27:05;;;;;;;18.40;6.70;;;;;;;9.54;91.66;99037.33;110027;1269;22968;-85
2024/03/11 06:29:57;;;;;;;16.90;6.00;;;;;;;9.56;91.70;99041.44;109743;1269;22610;-84
2024/03/11 06:32:50;;;;;;;19.00;6.60;;;;;;;9.58;91.66;99043.84;109910;1269;22637;-84
2024/03/11 06:35:42;;;;;;;23.40;7.50;;;;;;;9.61;91.64;99045.81;109960;1269;22597;-86
2024/03/11 06:38:33;;;;;;;19.70;7.20;;;;;;;9.63;91.60;99048.56;110108;1267;22766;-84
2024/03/11 06:41:25;;;;;;;18.60;6.30;;;;;;;9.64;91.67;99048.76;109949;1262;22648;-83
2024/03/11 06:44:17;;;;;;;15.50;5.90;;;;;;;9.67;91.83;99049.38;109624;1268;22554;-83
2024/03/11 06:47:09;;;;;;;18.20;7.70;;;;;;;9.69;91.73;99052.33;109971;1261;22568;-84
2024/03/11 06:50:00;;;;;;;21.10;7.90;;;;;;;9.72;91.86;99057.66;109878;1268;22789;-84
2024/03/11 06:52:52;;;;;;;21.30;7.10;;;;;;;9.74;91.85;99051.27;109769;1265;22572;-84
2024/03/11 06:55:43;;;;;;;19.00;7.00;;;;;;;9.77;91.75;99059.30;110019;1265;22598;-83
2024/03/11 06:58:34;;;;;;;21.30;7.30;;;;;;;9.79;91.72;99060.16;109821;1262;22672;-84
2024/03/11 07:01:27;;;;;;;21.60;7.10;;;;;;;9.83;91.85;99062.10;109461;1267;22638;-84
2024/03/11 07:04:20;;;;;;;19.20;7.30;;;;;;;9.86;91.87;99064.19;110048;1264;23725;-83
2024/03/11 07:07:11;;;;;;;17.90;6.30;;;;;;;9.90;91.85;99065.88;110086;1268;22546;-84
2024/03/11 07:10:05;;;;;;;19.50;7.40;;;;;;;9.93;91.89;99070.74;109923;1245;24397;-83
2024/03/11 07:12:56;;;;;;;20.30;7.60;;;;;;;9.97;91.88;99075.92;109899;1267;22591;-84
2024/03/11 07:15:47;;;;;;;19.60;7.40;;;;;;;10.01;91.74;99078.37;110059;1266;22568;-84
2024/03/11 07:18:39;;;;;;;21.00;7.10;;;;;;;10.04;91.83;99078.23;110200;1268;22583;-84
2024/03/11 07:21:31;;;;;;;16.40;7.10;;;;;;;10.06;91.83;99078.84;111266;1264;22414;-84
2024/03/11 07:25:09;;;;;;;15.90;6.80;;;;;;;10.09;91.77;99080.72;111202;1262;22123;-84
2024/03/11 07:28:01;;;;;;;22.30;7.90;;;;;;;10.14;91.85;99082.69;111314;1265;22928;-85
2024/03/11 07:30:52;;;;;;;19.50;7.30;;;;;;;10.18;91.76;99087.92;111106;1266;22158;-84
2024/03/11 07:33:44;;;;;;;20.30;6.90;;;;;;;10.21;91.48;99089.00;111260;1262;22248;-84
2024/03/11 07:36:35;;;;;;;20.30;7.60;;;;;;;10.24;91.53;99087.58;111171;1268;22236;-84
2024/03/11 07:39:27;;;;;;;18.50;6.60;;;;;;;10.26;91.43;99088.74;111432;1268;22177;-84
2024/03/11 07:42:18;;;;;;;25.90;8.30;;;;;;;10.29;91.46;99092.05;111396;1261;22409;-85
2024/03/11 07:45:11;;;;;;;18.00;6.80;;;;;;;10.33;91.57;99091.20;111113;1261;22261;-83
2024/03/11 07:48:02;;;;;;;20.10;8.00;;;;;;;10.38;91.66;99094.91;111182;1269;22268;-84
2024/03/11 07:50:53;;;;;;;22.10;7.70;;;;;;;10.43;91.54;99097.80;111177;1269;22143;-84
2024/03/11 07:53:44;;;;;;;19.20;7.10;;;;;;;10.49;91.72;99099.59;111209;1265;22799;-84
2024/03/11 07:56:34;;;;;;;18.80;6.90;;;;;;;10.56;91.59;99105.02;111482;1268;22262;-84
2024/03/11 07:59:26;;;;;;;20.40;7.60;;;;;;;10.64;91.71;99112.39;111421;1264;22381;-84
2024/03/11 08:02:17;;;;;;;19.20;8.10;;;;;;;10.71;91.68;99115.44;111250;1268;22176;-84
2024/03/11 08:05:13;;;;;;;19.20;7.10;;;;;;;10.78;91.27;99119.19;111405;1264;22353;-86
2024/03/11 08:08:04;;;;;;;20.10;7.30;;;;;;;10.82;91.11;99124.07;111245;1265;23205;-85
2024/03/11 08:10:55;;;;;;;22.20;8.10;;;;;;;10.86;91.14;99123.30;111137;1269;22776;-84
2024/03/11 08:13:47;;;;;;;20.70;7.40;;;;;;;10.90;91.12;99126.45;111217;1261;22144;-85
2024/03/11 08:16:39;;;;;;;16.70;7.00;;;;;;;10.93;91.02;99133.36;111225;1268;22893;-84
2024/03/11 08:19:32;;;;;;;20.90;8.20;;;;;;;10.95;90.69;99134.73;111415;1253;22891;-85
2024/03/11 08:22:23;;;;;;;25.60;8.60;;;;;;;10.96;90.55;99137.32;111320;1262;22140;-85
2024/03/11 08:25:17;;;;;;;18.80;7.90;;;;;;;10.98;90.82;99135.38;111179;1268;22701;-85
2024/03/11 08:28:10;;;;;;;21.00;8.60;;;;;;;11.01;90.67;99142.34;111281;1264;22176;-85
2024/03/11 08:31:07;;;;;;;19.70;7.90;;;;;;;11.03;90.52;99137.31;111195;1266;22132;-84
2024/03/11 08:34:00;;;;;;;19.60;8.20;;;;;;;11.05;90.43;99143.30;111428;1262;23211;-84
2024/03/11 08:36:52;;;;;;;22.60;8.50;;;;;;;11.09;90.46;99141.52;111385;1267;22730;-84
2024/03/11 08:39:43;;;;;;;18.80;8.80;;;;;;;11.14;90.69;99140.20;111439;1264;23043;-84
2024/03/11 08:42:34;;;;;;;27.30;8.80;;;;;;;11.22;90.83;99138.77;111381;1268;22146;-84
2024/03/11 08:45:31;;;;;;;18.70;7.20;;;;;;;11.33;90.75;99143.42;111419;1260;22119;-84
2024/03/11 08:48:22;;;;;;;18.90;7.80;;;;;;;11.45;90.72;99145.89;111405;1262;22167;-85
2024/03/11 08:51:15;;;;;;;19.10;7.80;;;;;;;11.56;90.62;99152.27;111409;1260;22289;-84
2024/03/11 08:54:06;;;;;;;18.70;6.90;;;;;;;11.65;90.32;99152.98;111209;1268;22205;-85
2024/03/11 08:56:57;;;;;;;21.60;7.70;;;;;;;11.72;90.08;99151.38;111156;1269;22176;-84
2024/03/11 08:59:49;;;;;;;19.20;6.60;;;;;;;11.80;90.01;99150.55;111138;1269;22226;-84
2024/03/11 09:02:39;;;;;;;22.20;8.20;;;;;;;11.88;89.79;99148.45;111146;1269;22615;-84
2024/03/11 09:05:31;;;;;;;18.20;6.90;;;;;;;11.96;89.72;99151.20;111406;1267;22841;-84
2024/03/11 09:08:23;;;;;;;20.00;7.40;;;;;;;12.08;89.73;99155.17;111397;1268;22150;-85
2024/03/11 09:11:15;;;;;;;18.30;6.40;;;;;;;12.22;89.54;99157.04;111079;1267;23213;-85
2024/03/11 09:14:07;;;;;;;19.10;8.10;;;;;;;12.33;88.93;99153.42;111224;1265;22743;-84
2024/03/11 09:17:00;;;;;;;19.60;8.20;;;;;;;12.45;88.79;99160.23;111185;1255;22312;-84
2024/03/11 09:19:53;;;;;;;17.40;6.60;;;;;;;12.54;88.58;99157.32;111214;1265;22225;-84
2024/03/11 09:22:46;;;;;;;16.10;6.40;;;;;;;12.63;88.17;99160.21;111188;1260;22161;-84
2024/03/11 09:25:37;;;;;;;16.90;7.60;;;;;;;12.72;87.97;99159.04;111146;1268;22161;-84
2024/03/11 09:28:28;;;;;;;16.40;6.60;;;;;;;12.78;87.22;99162.33;111132;1263;22900;-84
2024/03/11 09:31:19;;;;;;;21.70;7.60;;;;;;;12.83;87.07;99169.59;111147;1265;22075;-84
2024/03/11 09:34:11;;;;;;;18.40;6.30;;;;;;;12.88;86.80;99168.09;111274;1253;22054;-85
2024/03/11 09:37:02;;;;;;;17.20;6.10;;;;;;;12.94;86.83;99172.56;111432;1268;22704;-84
2024/03/11 09:39:53;;;;;;;16.90;6.60;;;;;;;12.99;86.33;99169.42;111345;1262;22152;-84
2024/03/11 09:42:46;;;;;;;19.20;7.10;;;;;;;13.03;86.12;99170.21;111070;1268;22158;-85
2024/03/11 09:45:40;;;;;;;23.20;7.90;;;;;;;13.08;85.93;99175.64;111183;1266;23063;-84
2024/03/11 09:48:32;;;;;;;19.50;6.90;;;;;;;13.14;86.23;99181.45;111179;1264;22919;-84
2024/03/11 09:51:23;;;;;;;17.80;7.10;;;;;;;13.22;85.67;99179.95;111214;1261;22329;-85
2024/03/11 09:54:17;;;;;;;20.90;7.40;;;;;;;13.28;85.89;99180.62;111191;1262;22262;-84
2024/03/11 09:57:09;;;;;;;18.10;7.10;;;;;;;13.37;85.73;99183.48;111392;1262;22201;-85
2024/03/11 10:00:02;;;;;;;15.70;5.90;;;;;;;13.46;85.39;99188.45;111214;1269;22606;-84
2024/03/11 10:03:04;;;;;;;20.10;6.40;;;;;;;13.53;84.72;99189.45;111235;1268;22200;-85
2024/03/11 10:05:59;;;;;;;15.80;5.70;;;;;;;13.59;84.61;99190.41;111214;1268;22981;-84
2024/03/11 10:08:50;;;;;;;22.20;7.90;;;;;;;13.63;83.84;99191.60;111136;1269;22245;-85
2024/03/11 10:11:44;;;;;;;25.40;9.00;;;;;;;13.68;84.00;99197.41;111165;1269;22797;-85
2024/03/11 10:14:35;;;;;;;17.70;6.40;;;;;;;13.74;84.08;99196.18;111187;1268;22153;-84
2024/03/11 10:17:28;;;;;;;17.80;7.10;;;;;;;13.79;83.95;99196.27;111274;1266;22377;-84
2024/03/11 10:20:22;;;;;;;16.70;5.60;;;;;;;13.84;83.54;99199.09;111390;1266;23181;-84
2024/03/11 10:23:19;;;;;;;19.10;7.20;;;;;;;13.88;83.56;99203.53;111404;1265;22177;-85
2024/03/11 10:26:17;;;;;;;20.60;7.20;;;;;;;13.93;83.48;99198.38;111423;1268;22140;-84
2024/03/11 10:29:11;;;;;;;20.10;6.90;;;;;;;13.98;83.18;99198.27;111419;1268;22077;-84
2024/03/11 10:32:03;;;;;;;20.10;6.70;;;;;;;14.02;83.05;99194.14;111223;1266;23040;-85
2024/03/11 10:34:57;;;;;;;17.50;5.70;;;;;;;14.07;82.69;99196.02;111419;1263;22402;-85
2024/03/11 10:37:50;;;;;;;19.90;7.10;;;;;;;14.09;82.27;99193.95;111421;1260;22631;-85
2024/03/11 10:40:44;;;;;;;19.20;6.50;;;;;;;14.13;82.53;99197.02;111375;1268;22923;-85
2024/03/11 10:43:35;;;;;;;18.50;6.40;;;;;;;14.18;82.11;99195.42;111370;1265;22203;-84
2024/03/11 10:46:28;;;;;;;19.70;6.40;;;;;;;14.22;82.07;99191.70;111425;1268;22393;-85
2024/03/11 10:49:21;;;;;;;18.20;6.20;;;;;;;14.27;82.10;99190.38;111352;1266;22195;-83
2024/03/11 10:52:20;;;;;;;22.50;6.70;;;;;;;14.34;81.92;99192.20;111201;1264;22412;-84
2024/03/11 10:55:12;;;;;;;18.50;7.00;;;;;;;14.38;81.47;99194.79;111287;1266;22404;-84
2024/03/11 10:58:09;;;;;;;17.70;5.80;;;;;;;14.43;81.29;99196.77;111338;1265;22146;-84
2024/03/11 11:01:03;;;;;;;19.40;6.30;;;;;;;14.47;81.11;99193.80;111242;1263;22035;-84
2024/03/11 11:03:54;;;;;;;18.80;6.30;;;;;;;14.53;81.15;99192.85;111372;1266;22056;-84
2024/03/11 11:06:49;;;;;;;20.30;5.90;;;;;;;14.57;80.10;99192.64;111422;1265;22881;-84
2024/03/11 11:09:49;;;;;;;17.70;6.50;;;;;;;14.57;80.15;99187.84;111388;1266;22109;-84
2024/03/11 11:12:42;;;;;;;18.40;6.20;;;;;;;14.59;79.87;99189.55;110998;1266;22581;-84
2024/03/11 11:15:36;;;;;;;15.60;4.80;;;;;;;14.61;79.55;99197.85;111200;1260;22828;-83
2024/03/11 11:18:28;;;;;;;14.40;4.50;;;;;;;14.63;79.79;99198.34;111404;1268;22147;-83
2024/03/11 11:21:22;;;;;;;20.10;5.70;;;;;;;14.67;79.82;99198.70;111390;1260;22408;-85
2024/03/11 11:24:29;;;;;;;15.30;6.10;;;;;;;14.72;79.66;99197.81;111448;1263;22294;-84
2024/03/11 11:27:27;;;;;;;19.10;5.60;;;;;;;14.76;79.76;99202.52;111377;1260;22344;-83
2024/03/11 11:30:22;;;;;;;17.20;5.70;;;;;;;14.80;79.24;99201.27;111424;1268;22265;-84
2024/03/11 11:33:33;;;;;;;16.80;5.10;;;;;;;14.81;78.61;99199.16;111289;1263;22494;-84
2024/03/11 11:37:07;;;;;;;14.60;4.80;;;;;;;14.82;78.82;99195.91;110988;1261;22271;-84
2024/03/11 11:39:58;;;;;;;18.20;5.30;;;;;;;14.87;78.64;99197.13;111051;1263;22612;-84
2024/03/11 11:42:49;;;;;;;15.60;5.10;;;;;;;14.88;78.10;99201.09;111168;1263;22332;-84
2024/03/11 11:45:54;;;;;;;20.80;4.60;;;;;;;14.90;78.16;99198.60;111208;1266;22161;-84
2024/03/11 11:48:46;;;;;;;14.00;4.60;;;;;;;14.92;77.87;99197.15;111087;1263;22332;-84
2024/03/11 11:51:38;;;;;;;17.90;5.20;;;;;;;14.93;77.77;99195.14;111228;1257;22812;-83
2024/03/11 11:54:30;;;;;;;16.80;5.80;;;;;;;14.94;77.77;99191.13;111429;1267;22174;-84
2024/03/11 11:57:24;;;;;;;13.80;4.40;;;;;;;14.97;77.56;99189.61;111438;1260;22303;-84
2024/03/11 12:00:17;;;;;;;18.30;6.00;;;;;;;14.97;77.14;99193.95;111401;1268;22284;-84
2024/03/11 12:03:27;;;;;;;14.80;4.80;;;;;;;14.96;76.99;99200.61;111190;1263;23067;-84
2024/03/11 12:06:20;;;;;;;19.30;5.60;;;;;;;14.94;76.91;99199.37;111212;1263;22139;-84
2024/03/11 12:09:16;;;;;;;15.90;3.60;;;;;;;14.94;76.95;99202.27;110993;1264;22336;-84
2024/03/11 12:12:08;;;;;;;12.90;3.80;;;;;;;14.94;76.57;99203.45;111425;1268;22087;-84
2024/03/11 12:14:59;;;;;;;17.40;4.60;;;;;;;14.95;76.45;99205.34;111208;1269;22966;-84
2024/03/11 12:17:54;;;;;;;12.80;3.20;;;;;;;14.97;76.34;99199.73;111181;1269;22779;-84
2024/03/11 12:20:44;;;;;;;17.70;4.70;;;;;;;15.00;76.46;99205.81;111190;1267;22307;-84
2024/03/11 12:23:35;;;;;;;16.30;5.20;;;;;;;15.03;76.31;99210.81;111178;1269;23368;-83
2024/03/11 12:26:27;;;;;;;15.40;5.00;;;;;;;15.05;76.03;99214.71;111391;1266;22153;-84
2024/03/11 12:29:21;;;;;;;15.10;4.80;;;;;;;15.08;76.03;99215.13;111422;1266;23422;-84
2024/03/11 12:32:16;;;;;;;13.10;3.90;;;;;;;15.11;75.92;99216.29;111428;1266;22109;-83
2024/03/11 12:35:12;;;;;;;14.60;4.90;;;;;;;15.13;75.77;99218.12;111178;1268;22173;-84
2024/03/11 12:38:05;;;;;;;13.80;3.90;;;;;;;15.16;75.81;99215.33;111188;1268;22096;-84
2024/03/11 12:40:57;;;;;;;16.30;5.10;;;;;;;15.20;76.08;99218.02;111342;1267;22173;-83
2024/03/11 12:43:49;;;;;;;19.00;5.00;;;;;;;15.24;75.49;99222.75;111280;1266;22084;-84
2024/03/11 12:46:41;;;;;;;17.70;4.40;;;;;;;15.26;75.36;99220.64;111085;1267;22879;-84
2024/03/11 12:49:32;;;;;;;14.50;3.90;;;;;;;15.27;74.98;99219.85;111283;1262;22157;-84
2024/03/11 12:52:23;;;;;;;14.10;4.20;;;;;;;15.30;75.47;99220.92;111216;1264;22080;-84
2024/03/11 12:55:16;;;;;;;12.60;3.80;;;;;;;15.35;74.78;99226.00;111387;1265;22166;-84
2024/03/11 12:58:12;;;;;;;16.40;4.70;;;;;;;15.36;74.91;99223.63;111419;1267;22247;-84
2024/03/11 13:01:09;;;;;;;14.80;4.50;;;;;;;15.40;74.70;99222.13;111342;1262;22085;-84
2024/03/11 13:04:15;;;;;;;15.00;4.20;;;;;;;15.44;74.33;99217.10;111216;1267;22303;-84
2024/03/11 13:07:08;;;;;;;16.30;3.80;;;;;;;15.47;74.24;99224.20;111357;1268;22089;-85
2024/03/11 13:10:00;;;;;;;14.40;4.30;;;;;;;15.47;74.02;99223.79;111297;1269;22148;-83
2024/03/11 13:12:51;;;;;;;12.40;5.20;;;;;;;15.48;74.03;99225.31;111125;1268;22947;-84
2024/03/11 13:15:43;;;;;;;18.70;5.70;;;;;;;15.49;74.29;99227.54;111110;1270;22188;-83
2024/03/11 13:18:34;;;;;;;11.80;3.70;;;;;;;15.50;73.65;99228.45;111192;1267;22098;-84
2024/03/11 13:21:25;;;;;;;12.90;3.80;;;;;;;15.49;73.69;99230.91;111403;1262;22131;-83